Latest Coastal Weather Observations for Kingscote

IDS60701

Issued at 12:35 pm CST Saturday 26 July 2014 (issued every 10 minutes, with the page automatically refreshed every 10 minutes)

About coastal observations | Map of coastal stations | Coastal observations for SA | Marine services | Other Formats
Station Details ID: 022841 Name: KINGSCOTE AERO Lat: -35.71 Lon: 137.52 Height: 6.23 m
Data from the previous 72 hours. | See also: Recent months at Kingscote
Date/Time
CST
Temp

°C
Wind Pressure Rain
since 9am
mm
Weather Cloud Vis
km
Sea
Height
m
Swell
Dir
 
Speed
knots
Gust
knots
hPa Trend Height
m
Period
s
Dir
26/12:30pm 16.0 NW 11 16 1025.5 - 0.0 - Partly cloudy 10 - - - -
26/12:00pm 15.6 NNW 12 17 1026.1 - 0.0 - Cloudy 10 - - - -
26/11:30am 15.2 NNW 12 18 1026.4 - 0.0 - Partly cloudy 10 - - - -
26/11:00am 13.6 NW 8 13 1026.7 - 0.0 - Partly cloudy 10 - - - -
26/10:30am 13.6 NNW 9 12 1026.9 - 0.0 - Partly cloudy 10 - - - -
26/10:00am 11.2 CALM 0 0 1027.0 - 0.0 - Cloudy 10 - - - -
26/09:30am 10.0 CALM 0 0 1026.9 - 0.0 - Partly cloudy 10 - - - -
26/09:00am 8.6 CALM 0 0 1026.8 - 0.6 - Mostly clear 10 - - - -
26/08:30am 6.3 CALM 0 0 1026.7 - 0.6 - Partly cloudy 10 - - - -
26/08:00am 4.6 CALM 0 0 1026.4 - 0.6 - Partly cloudy 10 - - - -
26/07:42am 4.0 CALM 0 0 1026.4 - 0.6 - - 10 - - - -
26/07:30am 3.5 CALM 0 0 1026.2 - 0.6 - - 5 - - - -
26/07:00am 3.9 CALM 0 2 1025.6 - 0.6 - - 3 - - - -
26/06:44am 4.2 CALM 0 0 1025.4 - 0.6 - - 5 - - - -
26/06:40am 4.4 CALM 0 0 1025.4 - 0.6 - - 10 - - - -
26/06:30am 4.1 CALM 0 0 1025.3 - 0.6 - - 5 - - - -
26/06:00am 4.5 CALM 0 0 1025.1 - 0.6 - - 3 - - - -
26/05:30am 4.8 CALM 0 0 1024.8 - 0.6 - - 0.7 - - - -
26/05:00am 5.4 W 0 0 1024.6 - 0.6 - - 0.9 - - - -
26/04:42am 5.7 W 0 0 1024.5 - 0.6 - - 5 - - - -
26/04:34am 5.7 CALM 0 0 1024.6 - 0.6 - - 10 - - - -
26/04:30am 5.9 CALM 0 0 1024.6 - 0.6 - - 10 - - - -
26/04:00am 6.4 CALM 0 2 1024.2 - 0.6 - - 2 - - - -
26/03:47am 6.5 W 1 3 1024.2 - 0.6 - - 5 - - - -
26/03:30am 6.5 W 3 3 1024.1 - 0.6 - - 8 - - - -
26/03:00am 6.7 W 5 5 1024.0 - 0.6 - - 10 - - - -
26/02:30am 7.2 W 6 7 1024.0 - 0.4 - Partly cloudy 10 - - - -
26/02:02am 8.1 WNW 4 6 1023.9 - 0.4 - - 10 - - - -
26/02:00am 8.2 NW 4 5 1023.8 - 0.4 - - 10 - - - -
26/01:37am 8.8 WNW 5 6 1023.8 - 0.4 - - 5 - - - -
26/01:30am 7.9 WNW 5 6 1023.7 - 0.4 - - 10 - - - -
26/01:00am 8.8 NW 6 6 1023.5 - 0.4 - Partly cloudy 10 - - - -
26/12:56am 8.8 NW 6 6 1023.4 - 0.4 - Partly cloudy 10 - - - -
26/12:42am 9.5 NW 5 6 1023.5 - 0.4 - Partly cloudy 5 - - - -
26/12:30am 10.0 NW 4 5 1023.6 - 0.4 - Partly cloudy 10 - - - -
26/12:15am 10.0 W 5 6 1023.6 - 0.4 - Partly cloudy 6 - - - -
26/12:04am 9.6 W 5 6 1023.7 - 0.4 - Partly cloudy 5 - - - -
26/12:00am 9.5 W 4 6 1023.7 - 0.4 - Cloudy 7 - - - -
 
Date/Time
CST
Temp

°C
Wind Pressure Rain
since 9am
mm
Weather Cloud Vis
km
Sea
Height
m
Swell
Dir
 
Speed
knots
Gust
knots
hPa Trend Height
m
Period
s
Dir
25/11:30pm 9.0 CALM 0 0 1023.6 - 0.4 - Partly cloudy 10 - - - -
25/11:00pm 8.8 CALM 0 0 1023.3 - 0.4 - Cloudy 10 - - - -
25/10:30pm 9.1 CALM 0 0 1023.1 - 0.4 - Partly cloudy 10 - - - -
25/10:00pm 9.8 W 3 5 1022.9 - 0.4 - Partly cloudy 10 - - - -
25/09:30pm 9.1 W 5 6 1022.9 - 0.4 - - 10 - - - -
25/09:00pm 8.9 WNW 6 6 1022.6 - 0.4 - - 10 - - - -
25/08:30pm 9.7 NW 5 6 1022.2 - 0.4 - Partly cloudy 10 - - - -
25/08:00pm 9.8 WSW 4 6 1022.1 - 0.4 - Partly cloudy 10 - - - -
25/07:30pm 9.9 WNW 4 5 1021.8 - 0.4 - Partly cloudy 10 - - - -
25/07:00pm 10.4 WNW 6 6 1021.5 - 0.4 - Partly cloudy 10 - - - -
25/06:30pm 10.6 WNW 6 7 1021.1 - 0.4 - - 10 - - - -
25/06:00pm 11.6 CALM 0 0 1020.7 - 0.4 - Mostly clear 10 - - - -
25/05:30pm 12.4 CALM 0 0 1020.2 - 0.4 - - 10 - - - -
25/05:00pm 13.4 W 3 4 1019.9 - 0.4 - Partly cloudy 10 - - - -
25/04:30pm 13.6 WNW 4 6 1019.6 - 0.4 - Partly cloudy 10 - - - -
25/04:00pm 13.6 W 7 8 1019.3 - 0.4 - Partly cloudy 10 - - - -
25/03:30pm 13.7 WSW 7 8 1018.9 - 0.4 - Partly cloudy 10 - - - -
25/03:00pm 14.4 WSW 9 11 1018.5 - 0.4 - Cloudy 10 - - - -
25/02:30pm 13.8 SW 7 9 1018.3 - 0.4 - Partly cloudy 10 - - - -
25/02:00pm 14.0 W 11 16 1018.0 - 0.4 - Partly cloudy 10 - - - -
25/01:49pm 15.1 WSW 5 7 1017.8 - 0.4 - Partly cloudy 10 - - - -
25/01:34pm 15.3 WNW 6 7 1017.8 - 0.2 - Partly cloudy 5 - - - -
25/01:30pm 15.2 WNW 5 7 1017.8 - 0.0 - Partly cloudy 7 - - - -
25/01:00pm 15.4 NW 6 8 1017.7 - 0.0 - Cloudy 10 - - - -
25/12:30pm 16.4 WNW 7 9 1017.8 - 0.0 - Partly cloudy 10 - - - -
25/12:00pm 15.6 WNW 7 9 1018.2 - 0.0 - Cloudy 10 - - - -
25/11:30am 15.6 WNW 7 9 1018.4 - 0.0 - Cloudy 10 - - - -
25/11:00am 15.4 W 8 10 1018.4 - 0.0 - Partly cloudy 10 - - - -
25/10:30am 15.2 WNW 7 10 1018.2 - 0.0 - Partly cloudy 10 - - - -
25/10:00am 14.2 CALM 0 0 1018.1 - 0.0 - - 10 - - - -
25/09:30am 12.4 SW 2 5 1017.8 - 0.0 - Partly cloudy 10 - - - -
25/09:00am 12.0 W 4 5 1017.5 - 0.2 - Mostly cloudy 10 - - - -
25/08:30am 11.1 CALM 0 0 1017.1 - 0.2 - Partly cloudy 10 - - - -
25/08:00am 8.8 CALM 0 0 1016.6 - 0.2 - Partly cloudy 10 - - - -
25/07:30am 9.1 CALM 0 0 1016.3 - 0.2 - Cloudy 10 - - - -
25/07:00am 9.1 CALM 0 0 1015.9 - 0.2 - Cloudy 10 - - - -
25/06:30am 9.6 WNW 3 6 1015.4 - 0.2 - Partly cloudy 10 - - - -
25/06:00am 9.5 W 5 6 1015.0 - 0.2 - Cloudy 10 - - - -
25/05:30am 9.1 WSW 4 5 1014.6 - 0.2 - Cloudy 10 - - - -
25/05:00am 9.0 WNW 4 5 1014.1 - 0.2 - Cloudy 10 - - - -
25/04:30am 8.8 W 5 6 1013.9 - 0.2 - Cloudy 10 - - - -
25/04:00am 8.6 NW 6 7 1013.7 - 0.2 - Cloudy 10 - - - -
25/03:30am 8.7 NW 5 6 1013.3 - 0.2 - Cloudy 10 - - - -
25/03:00am 8.4 WNW 5 6 1013.2 - 0.2 - Cloudy 10 - - - -
25/02:30am 8.8 W 5 6 1013.0 - 0.2 - - 10 - - - -
25/02:00am 8.6 CALM 0 0 1012.7 - 0.2 - Partly cloudy 10 - - - -
25/01:30am 8.5 CALM 0 0 1012.4 - 0.2 - Partly cloudy 10 - - - -
25/01:00am 8.9 CALM 0 0 1012.2 - 0.2 - Partly cloudy 10 - - - -
25/12:30am 9.8 WNW 3 5 1012.1 - 0.2 - Partly cloudy 10 - - - -
25/12:00am 10.2 W 7 8 1011.9 - 0.2 - - 10 - - - -
 
Date/Time
CST
Temp

°C
Wind Pressure Rain
since 9am
mm
Weather Cloud Vis
km
Sea
Height
m
Swell
Dir
 
Speed
knots
Gust
knots
hPa Trend Height
m
Period
s
Dir
24/11:30pm 10.0 W 6 8 1011.6 - 0.2 - - 10 - - - -
24/11:00pm 10.4 W 7 9 1011.4 - 0.2 - - 10 - - - -
24/10:30pm 10.1 W 7 8 1011.1 - 0.2 - - 10 - - - -
24/10:00pm 10.3 W 7 8 1011.0 - 0.2 - Partly cloudy 10 - - - -
24/09:30pm 10.8 W 6 7 1010.8 - 0.2 - Partly cloudy 10 - - - -
24/09:00pm 10.5 W 7 8 1010.7 - 0.2 - Mostly clear 10 - - - -
24/08:30pm 11.0 NW 6 8 1010.6 - 0.2 - Partly cloudy 10 - - - -
24/08:00pm 11.4 WNW 6 8 1010.2 - 0.2 - Partly cloudy 10 - - - -
24/07:30pm 11.8 W 7 11 1009.7 - 0.2 - Partly cloudy 10 - - - -
24/07:00pm 11.7 W 6 7 1009.5 - 0.2 - Partly cloudy 10 - - - -
24/06:30pm 11.9 W 7 9 1009.0 - 0.2 - Partly cloudy 10 - - - -
24/06:00pm 12.1 NW 7 8 1008.5 - 0.2 - Mostly clear 10 - - - -
24/05:30pm 12.9 W 6 7 1007.9 - 0.2 - Partly cloudy 10 - - - -
24/05:00pm 14.3 W 8 11 1007.4 - 0.2 - Partly cloudy 10 - - - -
24/04:30pm 15.2 W 10 15 1007.1 - 0.2 - Partly cloudy 10 - - - -
24/04:00pm 15.4 W 10 14 1006.6 - 0.2 - Partly cloudy 10 - - - -
24/03:30pm 14.2 WNW 8 11 1006.3 - 0.2 - Partly cloudy 10 - - - -
24/03:00pm 14.0 WNW 10 14 1006.1 - 0.2 - Cloudy 10 - - - -
24/02:30pm 15.3 W 12 18 1005.6 - 0.2 - Partly cloudy 10 - - - -
24/02:00pm 15.2 WNW 9 13 1005.3 - 0.2 - Partly cloudy 10 - - - -
24/01:30pm 15.9 W 12 16 1005.1 - 0.0 - Partly cloudy 10 - - - -
24/01:00pm 14.7 W 11 16 1005.2 - 0.0 - Partly cloudy 10 - - - -
24/12:30pm 15.7 WNW 12 16 1005.4 - 0.0 - Partly cloudy 10 - - - -
24/12:00pm 15.2 WNW 13 19 1005.8 - 0.0 - Cloudy 10 - - - -
24/11:30am 15.4 WNW 11 15 1006.1 - 0.0 - - 10 - - - -
24/11:00am 14.4 NW 7 12 1006.2 - 0.0 - Partly cloudy 10 - - - -
24/10:30am 13.3 WNW 7 10 1006.2 - 0.0 - Partly cloudy 10 - - - -
24/10:00am 13.1 W 8 11 1005.9 - 0.0 - Partly cloudy 10 - - - -
24/09:30am 12.6 WNW 9 12 1005.6 - 0.0 - Partly cloudy 10 - - - -
24/09:00am 11.1 WNW 10 12 1005.1 - 17.6 - - 10 - - - -
24/08:30am 10.7 W 8 13 1004.7 - 17.4 - - 10 - - - -
24/08:00am 11.0 W 6 7 1004.2 - 17.4 - Partly cloudy 10 - - - -
24/07:46am 11.3 CALM 0 0 1004.1 - 17.4 - Partly cloudy 10 - - - -
24/07:30am 11.3 CALM 0 0 1004.0 - 17.4 - Partly cloudy 4 - - - -
24/07:26am 11.2 CALM 0 0 1004.0 - 17.4 - Partly cloudy 5 - - - -
24/07:00am 11.4 N 3 7 1003.6 - 17.4 - Partly cloudy 10 - - - -
24/06:46am 11.5 N 5 7 1003.5 - 17.4 - Partly cloudy 7 - - - -
24/06:40am 11.5 N 6 9 1003.5 - 17.4 - Partly cloudy 10 - - - -
24/06:30am 11.5 N 5 7 1003.3 - 17.4 - Partly cloudy 6 - - - -
24/06:24am 11.6 N 6 9 1003.3 - 17.4 - Partly cloudy 5 - - - -
24/06:10am 11.5 NNE 8 11 1003.2 - 17.4 - Partly cloudy 10 - - - -
24/06:00am 11.5 NNE 8 13 1003.0 - 17.4 - Cloudy 5 - - - -
24/05:35am 11.5 NNE 9 14 1003.0 - 16.8 - Partly cloudy 5 - - - -
24/05:30am 11.5 NNE 9 12 1003.0 - 16.6 - Cloudy 7 - - - -
24/05:16am 11.5 NNE 10 13 1003.0 - 16.4 - Partly cloudy 8 - - - -
24/05:00am 11.4 NNE 10 14 1003.0 - 16.4 - Partly cloudy 4 - - - -
24/04:30am 11.2 NNE 12 18 1003.0 - 16.0 - Partly cloudy 3 - - - -
24/04:00am 11.0 NE 14 21 1003.1 - 15.4 - Partly cloudy 4 - - - -
24/03:30am 10.8 NE 15 21 1003.4 - 14.6 - Partly cloudy 2 - - - -
24/03:12am 10.8 NE 17 23 1003.7 - 13.6 - Partly cloudy 5 - - - -
24/03:10am 10.9 NE 16 23 1003.7 - 13.6 - Partly cloudy 7 - - - -
24/03:00am 11.0 NNE 17 25 1003.8 - 13.6 - Cloudy 5 - - - -
24/02:40am 10.9 NE 15 26 1003.9 - 13.2 - Partly cloudy 5 - - - -
24/02:30am 10.9 NE 16 24 1004.1 - 13.0 - Partly cloudy 3 - - - -
24/02:09am 11.0 NE 14 23 1004.5 - 12.0 - Partly cloudy 3 - - - -
24/02:00am 10.9 NNE 15 22 1004.7 - 11.8 - Partly cloudy 4 - - - -
24/01:30am 11.2 NE 14 21 1005.0 - 10.4 - Partly cloudy 4 - - - -
24/01:17am 11.3 NE 15 19 1005.1 - 9.4 - Partly cloudy 5 - - - -
24/01:00am 11.4 NE 18 25 1005.4 - 9.0 - Partly cloudy 10 - - - -
24/12:30am 11.6 NE 15 22 1005.8 - 8.6 - Partly cloudy 8 - - - -
24/12:00am 11.9 NNE 12 19 1006.5 - 8.4 - Cloudy 8 - - - -
 
Date/Time
CST
Temp

°C
Wind Pressure Rain
since 9am
mm
Weather Cloud Vis
km
Sea
Height
m
Swell
Dir
 
Speed
knots
Gust
knots
hPa Trend Height
m
Period
s
Dir
23/11:30pm 11.6 NE 13 18 1007.3 - 8.2 - Partly cloudy 9 - - - -
23/11:00pm 11.6 NE 19 26 1007.7 - 8.0 - Partly cloudy 10 - - - -
23/10:42pm 11.5 NNE 18 29 1008.0 - 8.0 - Partly cloudy 10 - - - -
23/10:30pm 11.5 NNE 17 27 1008.2 - 8.0 - Partly cloudy 5 - - - -
23/10:27pm 11.6 NNE 17 29 1008.3 - 7.8 - Partly cloudy 5 - - - -
23/10:19pm 12.1 NNE 18 29 1008.5 - 7.4 - Partly cloudy 10 - - - -
23/10:00pm 11.9 NNE 17 25 1008.6 - 7.4 - Partly cloudy 10 - - - -
23/09:52pm 11.9 NE 15 25 1008.7 - 7.4 - Partly cloudy 10 - - - -
23/09:36pm 11.6 NE 15 20 1009.1 - 7.4 - Partly cloudy 10 - - - -
23/09:30pm 11.4 NE 13 19 1009.1 - 7.4 - Partly cloudy 9 - - - -
23/09:10pm 11.4 NNE 17 23 1009.3 - 6.2 - Partly cloudy 5 - - - -
23/09:00pm 11.7 NE 18 27 1009.2 - 5.6 - Cloudy 10 - - - -
23/08:48pm 11.5 NE 16 26 1009.3 - 5.6 - Partly cloudy 10 - - - -
23/08:30pm 11.3 NNE 16 25 1009.7 - 5.6 - Partly cloudy 6 - - - -
23/08:03pm 11.6 NNE 18 28 1009.9 - 5.2 - Partly cloudy 10 - - - -
23/08:00pm 11.7 NNE 19 28 1009.9 - 5.2 - Partly cloudy 9 - - - -
23/07:30pm 12.0 NNE 20 30 1010.0 - 5.0 - Partly cloudy 10 - - - -
23/07:19pm 11.9 NNE 20 30 1009.8 - 5.0 - Partly cloudy 10 - - - -
23/07:00pm 12.1 NNE 20 28 1009.7 - 5.0 - Partly cloudy 10 - - - -
23/06:34pm 12.6 NNE 20 34 1009.5 - 5.0 - Partly cloudy 10 - - - -
23/06:30pm 12.6 NNE 20 27 1009.6 - 5.0 - Partly cloudy 10 - - - -
23/06:00pm 12.6 NE 17 23 1009.6 - 5.0 - Cloudy 10 - - - -
23/05:30pm 12.1 NE 15 22 1009.7 - 5.0 - Cloudy 10 - - - -
23/05:00pm 12.4 NE 17 23 1010.2 - 4.6 - Partly cloudy 9 - - - -
23/04:30pm 12.9 NE 15 20 1010.0 - 4.2 - Partly cloudy 10 - - - -
23/04:00pm 11.9 ENE 13 17 1010.0 - 4.2 - Partly cloudy 10 - - - -
23/03:30pm 11.8 ENE 12 15 1010.5 - 4.2 - Cloudy 10 - - - -
23/03:10pm 11.7 ENE 12 15 1010.6 - 4.2 - Partly cloudy 10 - - - -
23/03:00pm 11.7 ENE 12 19 1010.8 - 4.2 - Cloudy 10 - - - -
23/02:30pm 11.8 ENE 11 15 1011.2 - 4.2 - Partly cloudy 10 - - - -
23/02:18pm 11.8 ENE 10 14 1011.4 - 4.2 - Partly cloudy 10 - - - -
23/02:00pm 11.6 ENE 10 13 1011.6 - 4.2 - Partly cloudy 10 - - - -
23/01:36pm 11.5 E 8 11 1012.1 - 3.8 - Partly cloudy 6 - - - -
23/01:30pm 11.4 E 9 11 1012.3 - 3.6 - Partly cloudy 6 - - - -
23/01:14pm 11.3 NE 7 9 1013.2 - 3.0 - Partly cloudy 5 - - - -
23/01:13pm 11.3 NE 7 9 1013.3 - 2.8 - Partly cloudy 6 - - - -
23/01:00pm 11.4 NNE 6 9 1013.9 - 2.4 - Partly cloudy 5 - - - -
23/12:44pm 11.5 N 8 11 1014.4 - 1.4 - Partly cloudy 5 - - - -
23/12:42pm 11.5 N 8 11 1014.5 - 1.4 - Partly cloudy 6 - - - -

Other Formats:

Comma delimited format used in spreadsheet applications
http://www.bom.gov.au/fwo/IDS60701/IDS60701.95807.axf

JavaScript Object Notation format (JSON) in row-major order
http://www.bom.gov.au/fwo/IDS60701/IDS60701.95807.json